createdAt,value
2018-06-20T00:02:03.414Z,5.63
2018-06-20T00:04:29.787Z,6.53
2018-06-20T00:06:56.143Z,5.70
2018-06-20T00:09:22.475Z,6.00
2018-06-20T00:11:48.992Z,5.67
2018-06-20T00:14:15.328Z,5.60
2018-06-20T00:16:41.698Z,5.17
2018-06-20T00:19:08.296Z,6.03
2018-06-20T00:21:34.723Z,6.03
2018-06-20T00:24:01.091Z,5.53
2018-06-20T00:26:27.452Z,5.20
2018-06-20T00:28:53.792Z,5.67
2018-06-20T00:31:20.199Z,5.70
2018-06-20T00:33:46.531Z,6.13
2018-06-20T00:36:12.873Z,5.57
2018-06-20T00:38:39.465Z,6.37
2018-06-20T00:41:06.109Z,5.67
2018-06-20T00:43:32.447Z,5.60
2018-06-20T00:45:58.772Z,5.53
2018-06-20T00:48:25.122Z,5.60
2018-06-20T00:50:51.475Z,5.27
2018-06-20T00:53:17.877Z,5.70
2018-06-20T00:55:44.222Z,5.90
2018-06-20T00:58:10.586Z,5.50
2018-06-20T01:00:44.724Z,4.80
2018-06-20T01:03:11.315Z,5.47
2018-06-20T01:05:37.733Z,5.43
2018-06-20T01:08:04.168Z,4.50
2018-06-20T01:26:15.757Z,5.00
2018-06-20T01:28:42.076Z,4.17
2018-06-20T01:31:08.405Z,3.90
2018-06-20T01:33:34.756Z,3.93
2018-06-20T01:36:01.076Z,4.40
2018-06-20T01:38:27.779Z,3.70
2018-06-20T01:40:54.101Z,3.90
2018-06-20T01:43:20.504Z,4.00
2018-06-20T01:45:46.842Z,3.40
2018-06-20T01:48:13.160Z,3.70
2018-06-20T01:50:39.491Z,3.80
2018-06-20T01:53:05.876Z,3.93
2018-06-20T01:55:32.688Z,3.57
2018-06-20T01:57:59.152Z,3.60
2018-06-20T02:00:25.559Z,3.93
2018-06-20T02:02:52.400Z,3.70
2018-06-20T02:05:18.792Z,3.50
2018-06-20T02:07:45.528Z,3.37
2018-06-20T02:10:12.722Z,3.00
2018-06-20T02:12:39.235Z,3.40
2018-06-20T02:15:05.679Z,3.27
2018-06-20T02:17:32.031Z,3.10
2018-06-20T02:19:58.599Z,3.20
2018-06-20T02:22:24.976Z,3.40
2018-06-20T02:24:51.347Z,3.50
2018-06-20T02:27:17.734Z,3.93
2018-06-20T02:29:44.193Z,3.17
2018-06-20T02:32:10.637Z,3.10
2018-06-20T02:34:37.370Z,3.20
2018-06-20T02:37:03.857Z,3.30
2018-06-20T02:39:30.326Z,3.87
2018-06-20T02:41:56.658Z,3.07
2018-06-20T02:44:23.397Z,3.17
2018-06-20T02:46:50.021Z,3.20
2018-06-20T02:49:16.587Z,3.63
2018-06-20T02:51:43.078Z,3.40
2018-06-20T02:54:09.591Z,3.37
2018-06-20T02:56:36.135Z,3.30
2018-06-20T02:59:02.512Z,3.00
2018-06-20T03:01:28.860Z,3.03
2018-06-20T03:03:55.340Z,3.03
2018-06-20T03:06:21.740Z,2.77
2018-06-20T03:08:48.107Z,3.10
2018-06-20T03:11:14.594Z,3.00
2018-06-20T03:13:40.938Z,2.90
2018-06-20T03:16:07.403Z,3.20
2018-06-20T03:18:34.072Z,2.57
2018-06-20T03:21:00.418Z,2.90
2018-06-20T03:23:26.822Z,2.67
2018-06-20T03:25:54.788Z,2.67
2018-06-20T03:28:21.167Z,2.80
2018-06-20T03:30:47.641Z,2.50
2018-06-20T03:33:13.970Z,3.23
2018-06-20T03:35:40.337Z,2.80
2018-06-20T03:38:06.907Z,2.73
2018-06-20T03:40:33.290Z,3.10
2018-06-20T03:42:59.979Z,3.07
2018-06-20T03:45:26.365Z,3.40
2018-06-20T03:47:52.756Z,4.13
2018-06-20T03:50:19.256Z,3.93
2018-06-20T03:52:45.850Z,3.97
2018-06-20T03:55:12.164Z,3.17
2018-06-20T03:57:38.816Z,6.67
2018-06-20T04:00:05.177Z,6.40
2018-06-20T04:02:31.606Z,9.57
2018-06-20T04:04:58.095Z,7.47
2018-06-20T04:07:24.467Z,6.50
2018-06-20T04:09:50.803Z,5.00
2018-06-20T04:12:17.207Z,4.73
2018-06-20T04:14:43.601Z,5.00
2018-06-20T04:17:09.953Z,4.60
2018-06-20T04:19:36.312Z,4.23
2018-06-20T04:22:02.658Z,4.40
2018-06-20T04:24:29.120Z,4.40
2018-06-20T04:26:55.500Z,4.37
2018-06-20T04:29:22.242Z,3.83
2018-06-20T04:31:48.784Z,3.70
2018-06-20T04:34:15.152Z,3.97
2018-06-20T04:36:41.583Z,3.33
2018-06-20T04:39:08.024Z,3.60
2018-06-20T04:41:34.448Z,3.90
2018-06-20T04:44:00.870Z,2.90
2018-06-20T04:46:27.413Z,2.80
2018-06-20T04:48:53.848Z,4.00
2018-06-20T04:51:20.336Z,3.10
2018-06-20T04:53:46.745Z,2.97
2018-06-20T04:56:13.071Z,2.83
2018-06-20T04:58:39.671Z,3.20
2018-06-20T05:01:06.085Z,2.80
2018-06-20T05:03:32.791Z,2.80
2018-06-20T05:05:59.407Z,2.70
2018-06-20T05:08:25.760Z,3.00
2018-06-20T05:10:52.162Z,4.30
2018-06-20T05:13:18.685Z,3.17
2018-06-20T05:15:45.463Z,3.20
2018-06-20T05:18:12.198Z,2.90
2018-06-20T05:20:38.888Z,3.00
2018-06-20T05:23:05.488Z,3.47
2018-06-20T05:25:32.865Z,3.27
2018-06-20T05:27:59.296Z,3.50
2018-06-20T05:30:25.831Z,3.63
2018-06-20T05:32:52.597Z,3.10
2018-06-20T05:35:18.936Z,3.20
2018-06-20T05:37:45.701Z,3.20
2018-06-20T05:40:12.530Z,3.13
2018-06-20T05:42:39.103Z,3.17
2018-06-20T05:45:05.633Z,3.43
2018-06-20T05:47:32.348Z,3.20
2018-06-20T05:49:58.780Z,3.33
2018-06-20T05:52:25.683Z,3.57
2018-06-20T05:54:52.130Z,3.10
2018-06-20T05:57:18.707Z,3.40
2018-06-20T05:59:45.214Z,3.43
2018-06-20T06:02:11.805Z,3.20
2018-06-20T06:04:38.816Z,2.90
2018-06-20T06:07:05.202Z,3.20
2018-06-20T06:09:31.648Z,2.73
2018-06-20T06:11:58.048Z,4.00
2018-06-20T06:14:24.644Z,3.17
2018-06-20T06:16:51.314Z,3.60
2018-06-20T06:19:18.088Z,3.17
2018-06-20T06:21:44.665Z,3.47
2018-06-20T06:24:11.186Z,3.50
2018-06-20T06:26:37.779Z,3.90
2018-06-20T06:29:04.199Z,3.50
2018-06-20T06:31:30.811Z,3.90
2018-06-20T06:33:57.564Z,3.60
2018-06-20T06:36:24.221Z,3.70
2018-06-20T06:38:50.814Z,3.30
2018-06-20T06:41:17.351Z,3.80
2018-06-20T06:43:43.692Z,3.70
2018-06-20T06:46:10.203Z,3.30
2018-06-20T06:48:36.767Z,3.33
2018-06-20T06:51:03.259Z,4.13
2018-06-20T06:53:29.835Z,3.47
2018-06-20T06:55:56.277Z,3.77
2018-06-20T06:58:22.860Z,3.53
2018-06-20T07:00:49.457Z,3.60
2018-06-20T07:03:16.322Z,3.97
2018-06-20T07:05:43.142Z,3.93
2018-06-20T07:08:10.274Z,4.23
2018-06-20T07:10:37.328Z,3.67
2018-06-20T07:13:04.035Z,3.70
2018-06-20T07:15:30.480Z,3.93
2018-06-20T07:17:56.921Z,3.77
2018-06-20T07:20:23.614Z,3.73
2018-06-20T07:22:50.223Z,4.03
2018-06-20T07:25:17.173Z,4.33
2018-06-20T07:27:43.668Z,4.40
2018-06-20T07:30:12.816Z,3.57
2018-06-20T07:32:40.438Z,4.60
2018-06-20T07:35:07.083Z,4.20
2018-06-20T07:37:33.632Z,4.73
2018-06-20T07:40:00.391Z,4.00
2018-06-20T07:42:27.280Z,4.63
2018-06-20T07:44:54.136Z,4.80
2018-06-20T07:47:20.635Z,4.50
2018-06-20T07:49:47.053Z,4.73
2018-06-20T07:52:13.398Z,4.27
2018-06-20T07:54:39.878Z,4.13
2018-06-20T07:57:06.404Z,4.13
2018-06-20T07:59:32.931Z,4.20
2018-06-20T08:01:59.883Z,4.30
2018-06-20T08:04:27.726Z,4.77
2018-06-20T08:06:55.293Z,4.90
2018-06-20T08:09:22.601Z,4.47
2018-06-20T08:11:49.130Z,5.20
2018-06-20T08:14:16.055Z,4.40
2018-06-20T08:16:42.714Z,5.60
2018-06-20T08:19:09.716Z,4.60
2018-06-20T08:21:36.915Z,5.03
2018-06-20T08:24:03.601Z,4.80
2018-06-20T08:26:30.016Z,5.00
2018-06-20T08:28:56.450Z,5.00
2018-06-20T08:31:23.015Z,4.97
2018-06-20T08:33:49.926Z,5.00
2018-06-20T08:36:16.470Z,5.03
2018-06-20T08:38:43.392Z,4.83
2018-06-20T08:41:10.105Z,4.60
2018-06-20T08:43:36.638Z,4.97
2018-06-20T08:46:03.325Z,4.73
2018-06-20T08:48:29.738Z,4.43
2018-06-20T08:50:56.169Z,4.40
2018-06-20T08:53:23.003Z,5.10
2018-06-20T08:55:49.654Z,4.73
2018-06-20T08:58:16.088Z,5.13
2018-06-20T09:00:42.532Z,4.07
2018-06-20T09:03:09.374Z,4.80
2018-06-20T09:05:35.927Z,4.70
2018-06-20T09:08:02.360Z,4.80
2018-06-20T09:10:28.876Z,4.93
2018-06-20T09:12:55.554Z,5.17
2018-06-20T09:15:22.033Z,4.80
2018-06-20T09:17:48.482Z,5.70
2018-06-20T09:20:15.010Z,4.80
2018-06-20T09:22:41.589Z,4.90
2018-06-20T09:25:08.230Z,4.83
2018-06-20T09:27:34.865Z,4.37
2018-06-20T09:30:01.647Z,4.80
2018-06-20T09:32:28.323Z,4.57
2018-06-20T09:34:55.280Z,4.70
2018-06-20T09:37:21.741Z,5.50
2018-06-20T09:39:48.272Z,4.50
2018-06-20T09:42:14.688Z,5.53
2018-06-20T09:44:41.283Z,6.10
2018-06-20T09:47:07.969Z,4.17
2018-06-20T09:49:34.490Z,5.17
2018-06-20T09:52:01.145Z,4.53
2018-06-20T09:54:28.387Z,4.73
2018-06-20T09:56:55.068Z,5.47
2018-06-20T09:59:21.552Z,5.10
2018-06-20T10:01:48.029Z,5.03
2018-06-20T10:04:14.542Z,5.73
2018-06-20T10:06:41.027Z,5.37
2018-06-20T10:09:07.469Z,4.50
2018-06-20T10:11:34.068Z,4.87
2018-06-20T10:14:00.442Z,4.87
2018-06-20T10:16:27.052Z,5.13
2018-06-20T10:18:53.662Z,4.90
2018-06-20T10:21:20.539Z,5.47
2018-06-20T10:23:47.070Z,5.37
2018-06-20T10:26:13.424Z,4.90
2018-06-20T10:28:40.049Z,4.53
2018-06-20T10:31:06.686Z,4.97
2018-06-20T10:33:33.432Z,5.40
2018-06-20T10:36:00.071Z,4.80
2018-06-20T10:38:26.495Z,5.90
2018-06-20T10:40:52.880Z,5.23
2018-06-20T10:43:19.542Z,4.63
2018-06-20T10:45:46.827Z,3.90
2018-06-20T10:48:13.200Z,6.03
2018-06-20T10:50:39.674Z,5.37
2018-06-20T10:53:06.133Z,7.30
2018-06-20T10:55:32.700Z,4.30
2018-06-20T10:57:59.060Z,4.37
2018-06-20T11:00:25.501Z,3.47
2018-06-20T11:02:52.101Z,4.90
2018-06-20T11:05:18.528Z,4.87
2018-06-20T11:07:45.100Z,4.70
2018-06-20T11:10:11.525Z,4.60
2018-06-20T11:12:38.010Z,4.50
2018-06-20T11:15:04.340Z,3.80
2018-06-20T11:17:30.706Z,4.57
2018-06-20T11:19:57.091Z,4.13
2018-06-20T11:22:23.523Z,4.70
2018-06-20T11:24:52.286Z,4.80
2018-06-20T11:27:18.663Z,4.80
2018-06-20T11:29:45.067Z,5.00
2018-06-20T11:32:11.410Z,4.70
2018-06-20T11:34:38.468Z,3.77
2018-06-20T11:37:04.947Z,4.13
2018-06-20T11:39:31.627Z,3.60
2018-06-20T11:41:58.030Z,3.73
2018-06-20T11:44:24.372Z,4.00
2018-06-20T11:46:51.841Z,4.23
2018-06-20T11:49:18.546Z,3.97
2018-06-20T11:51:45.003Z,3.40
2018-06-20T11:54:11.376Z,3.80
2018-06-20T11:56:37.928Z,4.03
2018-06-20T11:59:05.756Z,3.90
2018-06-20T12:01:32.291Z,3.83
2018-06-20T12:03:58.683Z,5.10
2018-06-20T12:06:25.425Z,5.10
2018-06-20T12:08:52.504Z,4.50
2018-06-20T12:11:18.917Z,4.67
2018-06-20T12:13:45.257Z,4.90
2018-06-20T12:16:11.669Z,4.60
2018-06-20T12:18:38.269Z,5.00
2018-06-20T12:21:04.863Z,4.73
2018-06-20T12:23:31.305Z,4.70
2018-06-20T12:25:57.711Z,5.00
2018-06-20T12:28:24.300Z,5.23
2018-06-20T12:30:50.859Z,4.40
2018-06-20T12:33:17.329Z,4.83
2018-06-20T12:35:43.744Z,5.13
2018-06-20T12:38:10.191Z,5.20
2018-06-20T12:40:36.637Z,4.23
2018-06-20T12:43:03.185Z,4.00
2018-06-20T12:45:30.010Z,4.27
2018-06-20T12:47:56.475Z,4.20
2018-06-20T12:50:22.980Z,5.00
2018-06-20T12:52:49.384Z,4.30
2018-06-20T12:55:16.056Z,4.10
2018-06-20T12:57:42.444Z,4.60
2018-06-20T13:00:09.075Z,4.20
2018-06-20T13:02:35.523Z,4.57
2018-06-20T13:05:02.102Z,4.70
2018-06-20T13:07:28.759Z,4.70
2018-06-20T13:09:55.432Z,5.67
2018-06-20T13:12:21.928Z,5.30
2018-06-20T13:14:48.925Z,5.20
2018-06-20T13:17:15.288Z,4.80
2018-06-20T13:19:43.795Z,4.80
2018-06-20T13:22:11.113Z,4.40
2018-06-20T13:24:38.570Z,5.10
2018-06-20T13:27:04.978Z,4.60
2018-06-20T13:29:31.435Z,4.30
2018-06-20T13:31:57.854Z,4.80
2018-06-20T13:34:24.285Z,4.20
2018-06-20T13:36:50.776Z,4.13
2018-06-20T13:39:17.157Z,4.13
2018-06-20T13:41:43.493Z,4.20
2018-06-20T13:44:09.895Z,3.97
2018-06-20T13:46:36.323Z,4.70
2018-06-20T13:49:02.695Z,4.23
2018-06-20T13:51:29.069Z,4.90
2018-06-20T13:53:55.444Z,4.43
2018-06-20T13:56:21.816Z,4.50
2018-06-20T13:58:48.337Z,4.00
2018-06-20T14:01:14.820Z,4.27
2018-06-20T14:03:41.234Z,4.80
2018-06-20T14:06:07.604Z,5.33
2018-06-20T14:08:34.001Z,4.60
2018-06-20T14:11:00.355Z,4.77
2018-06-20T14:13:26.713Z,5.07
2018-06-20T14:15:53.123Z,5.17
2018-06-20T14:18:19.502Z,3.90
2018-06-20T14:20:45.902Z,4.57
2018-06-20T14:23:12.270Z,4.47
2018-06-20T14:25:38.706Z,4.63
2018-06-20T14:28:05.190Z,4.90
2018-06-20T14:30:31.613Z,4.67
2018-06-20T14:32:57.993Z,5.07
2018-06-20T14:35:24.415Z,5.47
2018-06-20T14:37:50.825Z,4.70
2018-06-20T14:40:17.272Z,4.87
2018-06-20T14:42:43.786Z,4.73
2018-06-20T14:45:10.131Z,4.40
2018-06-20T14:47:37.126Z,4.90
2018-06-20T14:50:03.479Z,4.70
2018-06-20T14:52:29.890Z,4.20
2018-06-20T14:54:56.220Z,4.60
2018-06-20T14:57:22.550Z,4.37
2018-06-20T14:59:48.892Z,4.10
2018-06-20T15:02:15.212Z,4.27
2018-06-20T15:04:41.535Z,4.47
2018-06-20T15:07:07.856Z,4.43
2018-06-20T15:09:34.381Z,3.97
2018-06-20T15:12:00.761Z,4.07
2018-06-20T15:14:27.148Z,4.00
2018-06-20T15:16:53.644Z,4.03
2018-06-20T15:19:20.111Z,4.30
2018-06-20T15:21:46.499Z,4.40
2018-06-20T15:24:12.825Z,3.67
2018-06-20T15:29:11.640Z,4.13
2018-06-20T15:31:38.105Z,3.90
2018-06-20T15:34:04.591Z,4.30
2018-06-20T15:36:30.926Z,4.27
2018-06-20T15:38:57.285Z,4.60
2018-06-20T15:41:23.642Z,4.57
2018-06-20T15:43:49.964Z,4.53
2018-06-20T15:46:16.338Z,4.30
2018-06-20T15:48:43.726Z,4.50
2018-06-20T15:51:10.283Z,5.10
2018-06-20T15:53:36.625Z,4.07
2018-06-20T15:56:03.233Z,4.47
2018-06-20T15:58:29.747Z,4.40
2018-06-20T16:00:56.130Z,4.50
2018-06-20T16:03:22.652Z,4.27
2018-06-20T16:05:49.138Z,4.40
2018-06-20T16:08:15.560Z,4.33
2018-06-20T16:10:41.953Z,4.50
2018-06-20T16:13:08.337Z,3.90
2018-06-20T16:15:34.794Z,4.23
2018-06-20T16:18:01.347Z,3.80
2018-06-20T16:20:27.725Z,4.70
2018-06-20T16:22:54.079Z,4.30
2018-06-20T16:25:20.600Z,4.13
2018-06-20T16:27:46.995Z,4.10
2018-06-20T16:30:13.334Z,4.27
2018-06-20T16:32:39.888Z,3.50
2018-06-20T16:35:06.771Z,4.70
2018-06-20T16:37:33.308Z,4.40
2018-06-20T16:39:59.704Z,4.27
2018-06-20T16:42:26.051Z,4.07
2018-06-20T16:44:52.452Z,4.03
2018-06-20T16:47:18.780Z,4.03
2018-06-20T16:49:45.104Z,3.93
2018-06-20T16:52:11.425Z,4.30
2018-06-20T16:54:38.114Z,4.37
2018-06-20T16:57:04.513Z,4.30
2018-06-20T16:59:31.154Z,4.23
2018-06-20T17:01:57.518Z,4.20
2018-06-20T17:04:23.959Z,4.00
2018-06-20T17:06:50.464Z,4.10
2018-06-20T17:09:16.823Z,3.50
2018-06-20T17:11:43.160Z,4.20
2018-06-20T17:14:09.583Z,4.37
2018-06-20T17:16:36.023Z,4.33
2018-06-20T17:19:02.559Z,4.20
2018-06-20T17:21:28.915Z,4.00
2018-06-20T17:23:55.379Z,4.73
2018-06-20T17:26:21.710Z,4.67
2018-06-20T17:28:48.088Z,4.47
2018-06-20T17:31:14.430Z,4.47
2018-06-20T17:33:40.828Z,5.30
2018-06-20T17:36:07.562Z,5.17
2018-06-20T17:38:34.043Z,5.10
2018-06-20T17:41:00.417Z,5.30
2018-06-20T17:43:26.936Z,5.53
2018-06-20T17:45:53.291Z,5.60
2018-06-20T17:48:19.806Z,6.00
2018-06-20T17:50:46.201Z,5.60
2018-06-20T17:53:12.593Z,5.83
2018-06-20T17:55:38.916Z,5.70
2018-06-20T17:58:05.252Z,5.30
2018-06-20T18:00:31.733Z,5.30
2018-06-20T18:02:58.096Z,5.27
2018-06-20T18:05:24.500Z,5.00
2018-06-20T18:07:50.962Z,5.70
2018-06-20T18:10:17.565Z,4.97
2018-06-20T18:12:44.004Z,4.90
2018-06-20T18:15:10.481Z,4.80
2018-06-20T18:17:36.929Z,4.43
2018-06-20T18:20:03.248Z,4.33
2018-06-20T18:22:29.590Z,5.10
2018-06-20T18:24:55.954Z,4.70
2018-06-20T18:27:22.298Z,4.50
2018-06-20T18:29:48.892Z,5.13
2018-06-20T18:32:15.457Z,4.40
2018-06-20T18:34:41.808Z,4.80
2018-06-20T18:37:08.536Z,5.10
2018-06-20T18:39:34.931Z,4.80
2018-06-20T18:42:01.255Z,4.90
2018-06-20T18:44:27.820Z,4.37
2018-06-20T18:46:54.161Z,4.43
2018-06-20T18:49:20.485Z,4.07
2018-06-20T18:51:47.017Z,5.10
2018-06-20T18:54:13.355Z,4.50
2018-06-20T18:56:39.903Z,4.93
2018-06-20T18:59:06.228Z,5.33
2018-06-20T19:01:32.611Z,4.77
2018-06-20T19:03:58.974Z,4.90
2018-06-20T19:06:25.344Z,4.50
2018-06-20T19:08:51.875Z,5.37
2018-06-20T19:11:18.201Z,4.77
2018-06-20T19:13:44.559Z,4.83
2018-06-20T19:16:11.114Z,5.13
2018-06-20T19:18:38.474Z,4.60
2018-06-20T19:21:04.836Z,4.87
2018-06-20T19:23:31.239Z,5.20
2018-06-20T19:25:57.685Z,5.50
2018-06-20T19:28:24.025Z,4.90
2018-06-20T19:30:50.416Z,4.80
2018-06-20T19:33:16.751Z,5.10
2018-06-20T19:35:43.119Z,5.37
2018-06-20T19:38:09.654Z,6.40
2018-06-20T19:40:36.120Z,5.37
2018-06-20T19:43:04.221Z,5.00
2018-06-20T19:45:30.580Z,5.10
2018-06-20T19:47:57.007Z,4.90
2018-06-20T19:50:23.353Z,5.40
2018-06-20T19:52:49.712Z,5.17
2018-06-20T19:55:16.029Z,5.17
2018-06-20T19:57:42.358Z,5.70
2018-06-20T20:00:08.824Z,5.00
2018-06-20T20:02:35.292Z,5.40
2018-06-20T20:05:01.558Z,5.57
2018-06-20T20:07:27.923Z,5.20
2018-06-20T20:09:54.450Z,5.13
2018-06-20T20:12:20.839Z,5.13
2018-06-20T20:14:47.222Z,5.70
2018-06-20T20:17:13.543Z,5.67
2018-06-20T20:19:40.128Z,5.63
2018-06-20T20:22:06.453Z,6.00
2018-06-20T20:24:33.730Z,5.30
2018-06-20T20:27:00.061Z,5.83
2018-06-20T20:29:26.512Z,5.80
2018-06-20T20:31:52.882Z,6.00
2018-06-20T20:34:19.229Z,5.23
2018-06-20T20:36:45.786Z,5.20
2018-06-20T20:39:12.150Z,6.10
2018-06-20T20:41:38.496Z,6.20
2018-06-20T20:44:04.859Z,5.53
2018-06-20T20:46:31.197Z,5.63
2018-06-20T20:48:57.517Z,6.17
2018-06-20T20:51:23.849Z,5.70
2018-06-20T20:53:50.347Z,5.50
2018-06-20T20:56:16.691Z,5.33
2018-06-20T20:58:43.175Z,5.87
2018-06-20T21:01:09.636Z,5.83
2018-06-20T21:03:35.967Z,5.60
2018-06-20T21:06:02.351Z,5.60
2018-06-20T21:08:28.667Z,5.77
2018-06-20T21:10:54.987Z,5.87
2018-06-20T21:13:21.342Z,5.40
2018-06-20T21:15:47.694Z,5.57
2018-06-20T21:18:14.056Z,5.40
2018-06-20T21:20:40.396Z,5.73
2018-06-20T21:23:06.725Z,5.70
2018-06-20T21:25:33.056Z,5.80
2018-06-20T21:27:59.529Z,6.13
2018-06-20T21:30:26.009Z,5.70
2018-06-20T21:32:52.352Z,5.27
2018-06-20T21:35:18.773Z,5.40
2018-06-20T21:37:45.091Z,6.43
2018-06-20T21:40:11.415Z,6.30
2018-06-20T21:42:37.731Z,5.33
2018-06-20T21:45:04.055Z,5.73
2018-06-20T21:47:30.425Z,5.73
2018-06-20T21:49:56.757Z,5.97
2018-06-20T21:52:23.082Z,5.60
2018-06-20T21:54:49.404Z,5.73
2018-06-20T21:57:15.866Z,6.33
2018-06-20T21:59:42.190Z,5.83
2018-06-20T22:02:08.547Z,5.87
2018-06-20T22:04:34.884Z,5.60
2018-06-20T22:07:01.281Z,5.33
2018-06-20T22:09:27.673Z,5.70
2018-06-20T22:11:54.016Z,5.93
2018-06-20T22:14:20.394Z,5.73
2018-06-20T22:16:46.789Z,5.90
2018-06-20T22:19:13.121Z,6.20
2018-06-20T22:21:39.460Z,5.37
2018-06-20T22:24:05.864Z,5.40
2018-06-20T22:26:32.239Z,5.77
2018-06-20T22:28:58.529Z,5.47
2018-06-20T22:31:24.892Z,6.20
2018-06-20T22:33:51.242Z,5.80
2018-06-20T22:36:17.579Z,5.40
2018-06-20T22:38:44.069Z,5.80
2018-06-20T22:41:10.380Z,5.90
2018-06-20T22:43:36.742Z,5.90
2018-06-20T22:46:03.093Z,5.50
2018-06-20T22:48:29.428Z,6.27
2018-06-20T22:50:55.823Z,5.50
2018-06-20T22:53:22.170Z,6.00
2018-06-20T22:55:48.498Z,5.70
2018-06-20T22:58:14.937Z,5.93
2018-06-20T23:00:41.261Z,5.37
2018-06-20T23:03:07.643Z,6.03
2018-06-20T23:05:34.007Z,5.80
2018-06-20T23:08:00.327Z,5.67
2018-06-20T23:10:26.692Z,4.83
2018-06-20T23:12:53.015Z,5.83
2018-06-20T23:15:19.349Z,5.63
2018-06-20T23:17:45.678Z,5.53
2018-06-20T23:20:11.996Z,5.70
2018-06-20T23:22:38.313Z,6.20
2018-06-20T23:25:04.641Z,5.20
2018-06-20T23:30:03.296Z,5.90
2018-06-20T23:32:29.617Z,5.63
2018-06-20T23:34:56.027Z,5.93
2018-06-20T23:37:22.349Z,6.20
2018-06-20T23:39:48.671Z,5.80
2018-06-20T23:42:15.080Z,4.83
2018-06-20T23:44:41.459Z,5.43
2018-06-20T23:47:07.852Z,6.17
2018-06-20T23:49:34.246Z,5.17
2018-06-20T23:52:00.572Z,6.10
2018-06-20T23:54:26.910Z,5.53
2018-06-20T23:56:53.255Z,5.13
2018-06-20T23:59:19.654Z,5.33
